CW3643 Lisbon PT current weather conditions

sailwx.info

Wind from 059 at 6 knots gusting 11

Air temperature 25.6° C
Dewpoint 16.7° C

Last reported at 2018-Apr-23 14:30 UTC.
Time now 2018-Apr-23 15:09 UTC

Location: N 38°47' W 009°07'.
View on Google Maps.

See reports from other nearby stations

  
Tides and Currents Weather Stations Pressure Air Temp Water Temp Dewpoint Dewpoint Depression Visibility Wind Speed Wind Dir Waves Ship Positions
date/time (UTC)wind fromknots sea level pressurealtimeterstation pressurevisibilityair tempwater tempwave heightnotes
2018-Apr-23 14:30 059 6 gusting 11 25.6
2018-Apr-23 14:20 131 3 gusting 9 25.0
2018-Apr-23 14:10 043 5 gusting 13 25.0
2018-Apr-23 14:00 097 3 gusting 9 25.0
2018-Apr-23 13:50 115 3 gusting 8 25.0
2018-Apr-23 13:40 055 2 gusting 9 24.4
2018-Apr-23 13:30 013 5 gusting 9 23.9
2018-Apr-23 13:20 032 4 gusting 11 23.9
2018-Apr-23 13:10 046 3 gusting 11 23.9
2018-Apr-23 13:00 139 4 gusting 11 23.9
2018-Apr-23 12:50 037 4 gusting 6 23.3
2018-Apr-23 12:40 029 2 gusting 10 23.3
2018-Apr-23 12:30 052 6 gusting 9 22.8
2018-Apr-23 12:20 094 3 gusting 8 22.8
2018-Apr-23 12:10 049 284 gusting 284 22.8
2018-Apr-23 12:00 097 5 gusting 10 22.2
2018-Apr-23 11:50 109 4 gusting 7 21.7
2018-Apr-23 11:40 038 5 gusting 8 21.7
2018-Apr-23 11:30 101 2 gusting 8 21.7
2018-Apr-23 11:20 093 5 gusting 7 21.7
2018-Apr-23 11:11 119 2 gusting 7 21.1
2018-Apr-23 11:00 121 1 gusting 6 20.6
2018-Apr-23 10:40 049 4 gusting 7 19.4
2018-Apr-23 10:30 069 0 gusting 5 20.0
2018-Apr-23 10:20 130 3 gusting 6 20.0
2018-Apr-23 10:10 087 1 gusting 5 20.0
2018-Apr-23 10:00 066 1 gusting 3 20.0
2018-Apr-23 09:40 099 0 gusting 3 19.4
2018-Apr-23 09:30 060 18.9
2018-Apr-23 09:20 060 18.9
2018-Apr-23 09:10 055 1 gusting 3 18.3
2018-Apr-23 09:00 057 0 gusting 5 18.3
2018-Apr-23 08:50 004 2 gusting 4 17.8
2018-Apr-23 08:40 010 3 gusting 6 17.8
2018-Apr-23 08:30 330 1 gusting 5 17.2
2018-Apr-23 08:20 012 2 gusting 5 17.2
2018-Apr-23 08:10 354 1 gusting 3 16.7
2018-Apr-23 08:00 352 1 gusting 3 16.1
2018-Apr-23 07:50 024 1 gusting 4 15.6
2018-Apr-23 07:40 031 2 gusting 5 15.6
2018-Apr-23 07:30 007 2 gusting 5 15.0
2018-Apr-23 07:20 018 3 gusting 6 15.0
2018-Apr-23 07:10 044 3 gusting 5 15.0
2018-Apr-23 07:00 037 2 gusting 5 15.0
2018-Apr-23 06:50 012 2 gusting 4 15.0
2018-Apr-23 06:40 012 1 gusting 2 15.0
2018-Apr-23 06:30 012 0 gusting 1 14.4
2018-Apr-23 06:20 012 14.4
2018-Apr-23 06:00 012 0 gusting 3 14.4
2018-Apr-23 05:50 012 0 gusting 2 14.4
2018-Apr-22 23:50 353 3 gusting 6 16.1
2018-Apr-22 23:40 322 2 gusting 6 16.7
2018-Apr-22 23:20 003 3 gusting 6 16.7
2018-Apr-22 23:10 323 3 gusting 5 16.7
2018-Apr-22 23:00 332 2 gusting 6 16.7
2018-Apr-22 22:51 336 4 gusting 8 16.7
2018-Apr-22 22:40 326 4 gusting 7 16.7
2018-Apr-22 22:30 338 3 gusting 6 16.7
2018-Apr-22 22:20 355 1 gusting 6 16.7
2018-Apr-22 22:10 328 3 gusting 6 16.7
2018-Apr-22 22:00 016 2 gusting 7 16.7
2018-Apr-22 21:50 313 5 gusting 7 17.2
2018-Apr-22 21:40 346 5 gusting 7 17.2
2018-Apr-22 21:30 330 4 gusting 6 17.2
2018-Apr-22 21:00 343 3 gusting 6 17.2
2018-Apr-22 20:50 358 3 gusting 8 17.2
2018-Apr-22 20:40 002 3 gusting 9 17.2
2018-Apr-22 20:30 340 4 gusting 9 17.2
2018-Apr-22 20:20 024 6 gusting 10 17.2
2018-Apr-22 20:10 343 5 gusting 9 17.2
2018-Apr-22 20:00 313 5 gusting 9 17.2
2018-Apr-22 19:50 315 2 gusting 6 17.2
2018-Apr-22 19:40 329 3 gusting 7 17.2
2018-Apr-22 19:30 355 2 gusting 6 17.2
2018-Apr-22 19:20 343 3 gusting 8 17.2
2018-Apr-22 19:10 318 5 gusting 10 17.2
2018-Apr-22 19:00 330 6 gusting 11 17.2
2018-Apr-22 18:50 322 5 gusting 9 17.2
2018-Apr-22 18:30 338 6 gusting 10 17.2
2018-Apr-22 18:20 307 284 gusting 284 17.2
2018-Apr-22 18:10 340 6 gusting 11 17.2
2018-Apr-22 18:00 329 7 gusting 12 17.2
2018-Apr-22 17:50 316 6 17.2
2018-Apr-22 17:40 346 6 gusting 11 17.8
2018-Apr-22 17:30 334 6 gusting 11 17.8
2018-Apr-22 17:20 309 5 gusting 13 17.8
2018-Apr-22 17:10 342 6 gusting 13 17.8
2018-Apr-22 17:00 358 9 gusting 13 18.3
2018-Apr-22 16:50 338 6 gusting 11 18.9
2018-Apr-22 16:40 007 2 gusting 6 18.9
2018-Apr-22 16:30 340 2 gusting 7 18.9
2018-Apr-22 16:20 316 2 gusting 8 19.4
2018-Apr-22 16:10 350 2 gusting 6 19.4
2018-Apr-22 16:00 350 1 gusting 10 19.4
2018-Apr-22 15:50 020 6 gusting 9 19.4
2018-Apr-22 15:40 029 5 gusting 7 19.4
2018-Apr-22 15:30 332 4 gusting 6 18.9
2018-Apr-22 15:20 351 4 gusting 7 18.9
2018-Apr-22 15:00 032 2 gusting 7 18.9
2018-Apr-22 14:50 043 3 18.9
2018-Apr-22 14:40 094 4 gusting 7 19.4
2018-Apr-22 14:30 079 4 gusting 8 19.4
2018-Apr-22 14:20 037 3 gusting 7 19.4
2018-Apr-22 14:10 055 5 gusting 10 19.4
2018-Apr-22 14:00 195 6 gusting 10 19.4
2018-Apr-22 13:50 057 4 gusting 7 19.4
2018-Apr-22 13:40 059 4 gusting 6 19.4
2018-Apr-22 13:30 068 2 19.4
2018-Apr-22 13:20 048 3 gusting 7 19.4
2018-Apr-22 13:10 053 3 gusting 6 18.9
2018-Apr-22 12:50 349 1 gusting 5 18.3
2018-Apr-22 12:40 357 2 gusting 7 18.3
2018-Apr-22 12:30 051 5 gusting 10 18.3
2018-Apr-22 12:20 037 5 gusting 9 17.8
2018-Apr-22 12:10 042 5 gusting 8 17.8
2018-Apr-22 12:00 049 6 gusting 9 17.8
2018-Apr-22 11:50 068 6 gusting 10 17.8
2018-Apr-22 11:40 078 5 gusting 9 17.2
2018-Apr-22 11:30 061 5 gusting 8 17.2
2018-Apr-22 11:20 040 4 gusting 7 17.2
2018-Apr-22 11:10 020 5 gusting 8 17.2
2018-Apr-22 11:00 024 6 gusting 10 17.2
2018-Apr-22 10:50 026 3 gusting 12 16.7
2018-Apr-22 10:40 106 6 gusting 13 16.7
2018-Apr-22 10:30 042 284 gusting 284 16.7
2018-Apr-22 10:20 051 6 gusting 11 17.2
2018-Apr-22 10:10 059 6 gusting 9 17.2
2018-Apr-22 10:00 089 5 gusting 10 16.7
2018-Apr-22 09:50 064 5 gusting 7 17.2
2018-Apr-22 09:40 355 0 gusting 6 16.7
2018-Apr-22 09:30 118 4 gusting 7 16.7
2018-Apr-22 09:20 058 3 gusting 6 16.7
2018-Apr-22 09:10 028 4 gusting 7 16.1
2018-Apr-22 09:00 068 3 gusting 6 16.1
2018-Apr-22 08:50 056 3 gusting 7 16.1
2018-Apr-22 08:30 047 5 gusting 8 16.1
2018-Apr-22 08:20 042 2 gusting 11 16.1
2018-Apr-22 08:10 020 5 gusting 11 16.1
2018-Apr-22 08:00 066 4 gusting 9 16.1
2018-Apr-22 07:50 054 5 gusting 11 15.6
2018-Apr-22 07:40 067 4 gusting 11 15.6
2018-Apr-22 07:30 123 6 gusting 10 15.6
2018-Apr-22 07:20 084 4 gusting 7 15.6
2018-Apr-22 07:10 052 2 gusting 7 15.6
2018-Apr-22 07:00 119 2 gusting 6 15.6
2018-Apr-22 06:50 011 2 gusting 6 15.6
2018-Apr-22 06:40 062 3 gusting 6 15.6
2018-Apr-22 06:30 060 3 gusting 6 15.6
2018-Apr-22 06:20 012 2 gusting 6 15.6
2018-Apr-22 06:10 057 4 gusting 6 15.6
2018-Apr-22 06:00 047 4 gusting 7 15.6
2018-Apr-22 05:50 074 2 gusting 7 15.6
2018-Apr-22 05:40 061 4 gusting 6 15.6
2018-Apr-22 05:30 048 4 gusting 6 15.6
2018-Apr-22 05:20 060 1 gusting 4 15.6
2018-Apr-22 05:10 044 3 gusting 6 15.6
2018-Apr-22 05:00 055 3 gusting 6 15.6
2018-Apr-22 04:50 037 3 gusting 6 15.6
2018-Apr-22 04:40 026 3 gusting 6 15.6
2018-Apr-22 04:30 078 2 gusting 6 15.6
2018-Apr-22 04:20 039 2 gusting 6 15.6
2018-Apr-22 04:10 014 1 gusting 5 15.6
2018-Apr-22 04:00 032 1 gusting 5 15.6
2018-Apr-22 03:50 055 1 gusting 4 15.6
2018-Apr-22 03:40 032 2 gusting 6 15.6
2018-Apr-22 03:31 003 2 gusting 5 15.6
2018-Apr-22 03:20 010 1 gusting 4 15.6
2018-Apr-22 03:10 053 3 gusting 6 15.6
2018-Apr-22 03:00 353 0 gusting 2 15.6
2018-Apr-22 02:50 353 1 gusting 2 15.6
2018-Apr-22 02:40 353 3 gusting 5 15.6
2018-Apr-22 02:30 056 1 gusting 6 15.6
2018-Apr-22 02:20 012 1 gusting 4 15.6
2018-Apr-22 02:10 344 1 gusting 6 15.6
2018-Apr-22 02:00 009 2 gusting 5 15.6
2018-Apr-22 01:50 004 4 gusting 6 15.6
2018-Apr-22 01:40 026 2 gusting 5 15.6
2018-Apr-22 01:30 338 3 gusting 5 15.6
2018-Apr-22 01:20 352 2 gusting 6 15.6
2018-Apr-22 01:10 007 3 gusting 6 15.6
2018-Apr-22 01:00 345 1 gusting 3 16.1
2018-Apr-22 00:50 020 16.1
2018-Apr-22 00:40 020 0 gusting 2 16.1
2018-Apr-22 00:20 020 1 gusting 3 16.1
2018-Apr-22 00:10 012 3 gusting 5 16.1
2018-Apr-22 00:00 005 3 gusting 4 16.1
2018-Apr-21 23:50 005 1 gusting 4 16.1
2018-Apr-21 23:40 015 2 gusting 4 16.1
2018-Apr-21 23:30 015 0 gusting 2 16.1
2018-Apr-21 23:20 015 1 gusting 3 16.1
2018-Apr-21 23:10 015 16.1
2018-Apr-21 23:00 015 0 gusting 3 16.1
2018-Apr-21 22:50 015 16.7
2018-Apr-21 22:40 015 2 gusting 5 16.1
2018-Apr-21 22:30 014 2 gusting 5 16.1
2018-Apr-21 22:20 010 1 gusting 3 16.1
2018-Apr-21 22:10 010 16.1
2018-Apr-21 22:00 010 2 gusting 4 16.1
2018-Apr-21 21:50 010 1 gusting 2 16.1
2018-Apr-21 21:40 010 16.7
2018-Apr-21 21:30 010 1 gusting 4 16.7
2018-Apr-21 21:20 340 1 gusting 3 16.7
2018-Apr-21 21:10 340 1 gusting 5 16.7
2018-Apr-21 21:00 321 2 gusting 3 16.7
2018-Apr-21 20:50 289 2 gusting 4 16.7
2018-Apr-21 20:40 289 1 gusting 2 16.7
2018-Apr-21 20:30 289 2 gusting 4 16.7
2018-Apr-21 20:20 289 1 gusting 2 16.7
2018-Apr-21 20:10 289 1 gusting 4 16.7
2018-Apr-21 20:00 289 1 gusting 2 16.7
2018-Apr-21 19:50 289 1 gusting 6 16.7
2018-Apr-21 19:40 311 1 gusting 6 16.7
2018-Apr-21 19:30 272 4 gusting 6 16.7
2018-Apr-21 19:20 311 3 gusting 6 17.2
2018-Apr-21 19:10 278 2 gusting 6 17.2
2018-Apr-21 19:01 280 3 gusting 6 17.2
2018-Apr-21 18:50 355 2 gusting 6 17.8
2018-Apr-21 18:40 306 3 gusting 6 17.8
2018-Apr-21 18:30 309 4 gusting 6 18.3
2018-Apr-21 18:20 276 2 gusting 6 18.9
2018-Apr-21 18:10 268 0 gusting 6 18.3
2018-Apr-21 17:50 274 5 gusting 7 18.9
2018-Apr-21 17:40 241 3 gusting 7 18.9
2018-Apr-21 17:30 228 4 gusting 6 18.9
2018-Apr-21 17:20 053 4 gusting 8 18.9
2018-Apr-21 17:10 185 4 gusting 10 18.9
2018-Apr-21 17:00 128 4 gusting 9 18.9
2018-Apr-21 16:50 185 4 gusting 9 18.9